createdAt,value
2019-03-26T00:01:23.587Z,102011.28
2019-03-26T00:04:05.351Z,102020.13
2019-03-26T00:06:27.980Z,102019.00
2019-03-26T00:08:59.260Z,102015.46
2019-03-26T00:11:30.597Z,102015.91
2019-03-26T00:14:01.872Z,102022.85
2019-03-26T00:16:33.166Z,102022.91
2019-03-26T00:19:04.409Z,102018.67
2019-03-26T00:21:35.974Z,102026.53
2019-03-26T00:24:07.324Z,102023.08
2019-03-26T00:26:38.512Z,102019.81
2019-03-26T00:29:09.787Z,102012.18
2019-03-26T00:31:41.120Z,102016.22
2019-03-26T00:34:19.146Z,102010.34
2019-03-26T00:36:45.392Z,102008.25
2019-03-26T00:39:16.678Z,102010.78
2019-03-26T00:41:48.018Z,102021.46
2019-03-26T00:44:19.352Z,102017.20
2019-03-26T00:46:50.655Z,102027.89
2019-03-26T00:49:21.946Z,102015.39
2019-03-26T00:51:53.266Z,102012.30
2019-03-26T00:54:24.443Z,102015.72
2019-03-26T00:56:55.687Z,102008.52
2019-03-26T00:59:27.084Z,102023.81
2019-03-26T01:01:58.391Z,102024.41
2019-03-26T01:04:33.032Z,102025.27
2019-03-26T01:07:02.806Z,102027.17
2019-03-26T01:09:34.084Z,102016.37
2019-03-26T01:12:05.414Z,102020.75
2019-03-26T01:14:36.686Z,102019.92
2019-03-26T01:17:08.000Z,102005.91
2019-03-26T01:19:39.273Z,101998.11
2019-03-26T01:22:10.612Z,102010.98
2019-03-26T01:24:41.906Z,102012.17
2019-03-26T01:27:13.190Z,102025.00
2019-03-26T01:29:44.448Z,102026.63
2019-03-26T01:32:15.757Z,102024.77
2019-03-26T01:34:46.989Z,102020.30
2019-03-26T01:37:18.309Z,102021.55
2019-03-26T01:39:49.554Z,102022.86
2019-03-26T01:42:20.870Z,102025.33
2019-03-26T01:44:52.198Z,102025.92
2019-03-26T01:47:23.505Z,102014.41
2019-03-26T01:49:54.781Z,102013.88
2019-03-26T01:52:26.089Z,102016.34
2019-03-26T01:54:57.450Z,102006.46
2019-03-26T01:57:28.757Z,102010.32
2019-03-26T02:00:00.038Z,102007.70
2019-03-26T02:02:31.344Z,102007.55
2019-03-26T02:05:02.520Z,102008.30
2019-03-26T02:07:33.881Z,101999.68
2019-03-26T02:10:05.468Z,102005.69
2019-03-26T02:12:36.794Z,102000.86
2019-03-26T02:15:11.452Z,102006.09
2019-03-26T02:17:42.777Z,102003.59
2019-03-26T02:20:14.083Z,102000.16
2019-03-26T02:22:45.287Z,101995.19
2019-03-26T02:25:16.617Z,101999.30
2019-03-26T02:27:47.932Z,101996.16
2019-03-26T02:30:19.240Z,102002.11
2019-03-26T02:32:50.561Z,102004.23
2019-03-26T02:35:21.928Z,101998.36
2019-03-26T02:37:53.243Z,102001.52
2019-03-26T02:40:24.495Z,101990.47
2019-03-26T02:42:55.817Z,102000.41
2019-03-26T02:45:27.189Z,101996.90
2019-03-26T02:47:58.494Z,101995.05
2019-03-26T02:50:29.747Z,101997.30
2019-03-26T02:53:01.577Z,101999.37
2019-03-26T02:55:32.804Z,101993.70
2019-03-26T02:58:04.092Z,101993.50
2019-03-26T03:00:35.500Z,101985.32
2019-03-26T03:03:07.365Z,101991.62
2019-03-26T03:05:38.564Z,101996.38
2019-03-26T03:08:09.922Z,101988.95
2019-03-26T03:10:41.272Z,101998.55
2019-03-26T03:13:12.648Z,101991.48
2019-03-26T03:15:44.073Z,101980.69
2019-03-26T03:18:15.391Z,101981.55
2019-03-26T03:20:46.682Z,101968.34
2019-03-26T03:23:18.131Z,101975.39
2019-03-26T03:25:49.474Z,101984.16
2019-03-26T03:28:20.764Z,101976.11
2019-03-26T03:30:52.246Z,101977.36
2019-03-26T03:33:23.644Z,101971.59
2019-03-26T03:35:54.983Z,101967.09
2019-03-26T03:38:26.404Z,101967.55
2019-03-26T03:40:57.783Z,101967.28
2019-03-26T03:43:29.169Z,101967.28
2019-03-26T03:46:00.741Z,101960.67
2019-03-26T03:48:33.349Z,101959.42
2019-03-26T03:51:07.914Z,101974.73
2019-03-26T03:53:39.264Z,101966.77
2019-03-26T03:56:13.644Z,101971.46
2019-03-26T03:58:48.792Z,101973.31
2019-03-26T04:01:20.158Z,101963.55
2019-03-26T04:03:51.584Z,101962.00
2019-03-26T04:06:22.880Z,101962.45
2019-03-26T04:08:54.251Z,101948.17
2019-03-26T04:11:25.630Z,101944.23
2019-03-26T04:13:56.958Z,101948.95
2019-03-26T04:16:28.379Z,101947.11
2019-03-26T04:18:59.753Z,101945.80
2019-03-26T04:21:31.124Z,101941.20
2019-03-26T04:24:02.429Z,101935.82
2019-03-26T04:26:33.847Z,101950.48
2019-03-26T04:29:05.198Z,101952.33
2019-03-26T04:31:36.751Z,101948.91
2019-03-26T04:34:08.107Z,101954.22
2019-03-26T04:36:58.407Z,101944.70
2019-03-26T04:39:30.989Z,101941.98
2019-03-26T04:42:21.260Z,101954.19
2019-03-26T04:44:52.635Z,101951.94
2019-03-26T04:47:26.858Z,101962.76
2019-03-26T04:49:58.403Z,101957.27
2019-03-26T04:52:29.827Z,101954.12
2019-03-26T04:55:01.295Z,101955.82
2019-03-26T04:57:32.642Z,101949.78
2019-03-26T05:00:04.723Z,101947.84
2019-03-26T05:02:36.104Z,101954.76
2019-03-26T05:05:07.585Z,101945.10
2019-03-26T05:07:39.020Z,101946.03
2019-03-26T05:10:10.657Z,101943.77
2019-03-26T05:12:41.931Z,101943.27
2019-03-26T05:15:13.648Z,101941.16
2019-03-26T05:17:45.074Z,101942.23
2019-03-26T05:20:16.504Z,101949.77
2019-03-26T05:22:47.790Z,101943.59
2019-03-26T05:25:19.187Z,101940.47
2019-03-26T05:27:50.513Z,101953.50
2019-03-26T05:30:21.832Z,101943.23
2019-03-26T05:32:53.208Z,101956.63
2019-03-26T05:35:24.476Z,101955.00
2019-03-26T05:37:55.776Z,101947.33
2019-03-26T05:40:27.064Z,101955.64
2019-03-26T05:42:58.340Z,101963.30
2019-03-26T05:45:29.739Z,101950.09
2019-03-26T05:48:01.219Z,101966.30
2019-03-26T05:50:32.554Z,101945.72
2019-03-26T05:53:03.879Z,101946.48
2019-03-26T05:55:35.164Z,101944.54
2019-03-26T05:58:06.498Z,101945.33
2019-03-26T06:00:37.801Z,101948.72
2019-03-26T06:03:09.085Z,101947.58
2019-03-26T06:05:40.351Z,101956.88
2019-03-26T06:08:11.652Z,101957.58
2019-03-26T06:10:42.876Z,101956.18
2019-03-26T06:13:14.137Z,101954.95
2019-03-26T06:15:45.682Z,101950.33
2019-03-26T06:18:17.036Z,101946.09
2019-03-26T06:20:48.442Z,101932.80
2019-03-26T06:23:20.122Z,101941.35
2019-03-26T06:25:51.446Z,101943.20
2019-03-26T06:28:22.757Z,101938.61
2019-03-26T06:30:54.238Z,101935.97
2019-03-26T06:33:25.547Z,101941.46
2019-03-26T06:35:56.832Z,101930.29
2019-03-26T06:38:28.322Z,101932.60
2019-03-26T06:40:59.579Z,101927.43
2019-03-26T06:43:31.015Z,101927.67
2019-03-26T06:46:02.474Z,101920.98
2019-03-26T06:48:35.148Z,101926.95
2019-03-26T06:51:06.744Z,101927.12
2019-03-26T06:53:41.095Z,101926.95
2019-03-26T06:56:12.394Z,101922.86
2019-03-26T06:58:43.866Z,101928.73
2019-03-26T07:01:15.224Z,101919.33
2019-03-26T07:03:46.580Z,101933.06
2019-03-26T07:06:17.980Z,101923.03
2019-03-26T07:08:49.350Z,101929.91
2019-03-26T07:11:24.957Z,101943.58
2019-03-26T07:13:56.262Z,101924.55
2019-03-26T07:16:27.625Z,101933.20
2019-03-26T07:18:58.897Z,101935.59
2019-03-26T07:21:30.290Z,101953.83
2019-03-26T07:24:01.697Z,101940.70
2019-03-26T07:26:33.069Z,101937.93
2019-03-26T07:29:04.451Z,101939.48
2019-03-26T07:31:35.737Z,101939.48
2019-03-26T07:34:07.333Z,101931.80
2019-03-26T07:36:38.848Z,101937.41
2019-03-26T07:39:10.237Z,101941.42
2019-03-26T07:41:41.617Z,101930.95
2019-03-26T07:44:13.055Z,101939.41
2019-03-26T07:46:44.388Z,101937.38
2019-03-26T07:49:15.722Z,101936.52
2019-03-26T07:51:47.119Z,101945.33
2019-03-26T07:54:18.352Z,101945.35
2019-03-26T07:56:49.768Z,101927.58
2019-03-26T07:59:21.204Z,101939.16
2019-03-26T08:01:52.582Z,101933.58
2019-03-26T08:04:23.970Z,101938.80
2019-03-26T08:06:55.335Z,101935.52
2019-03-26T08:09:26.930Z,101939.26
2019-03-26T08:11:58.386Z,101930.10
2019-03-26T08:14:29.764Z,101928.59
2019-03-26T08:17:01.072Z,101935.81
2019-03-26T08:19:32.444Z,101920.04
2019-03-26T08:22:03.919Z,101917.23
2019-03-26T08:24:35.191Z,101917.45
2019-03-26T08:27:09.322Z,101906.19
2019-03-26T08:29:40.708Z,101899.86
2019-03-26T08:32:12.143Z,101896.14
2019-03-26T08:34:46.595Z,101891.16
2019-03-26T08:37:16.766Z,101879.86
2019-03-26T08:39:48.096Z,101878.31
2019-03-26T08:42:19.432Z,101879.62
2019-03-26T08:44:50.924Z,101882.61
2019-03-26T08:47:22.289Z,101880.96
2019-03-26T08:49:53.664Z,101889.92
2019-03-26T08:52:25.084Z,101889.44
2019-03-26T08:54:56.438Z,101921.58
2019-03-26T08:57:27.865Z,101929.50
2019-03-26T08:59:59.251Z,101917.44
2019-03-26T09:02:30.529Z,101929.11
2019-03-26T09:05:01.905Z,101936.98
2019-03-26T09:07:33.179Z,101938.84
2019-03-26T09:10:05.016Z,101939.05
2019-03-26T09:12:39.374Z,101927.39
2019-03-26T09:15:14.587Z,101933.95
2019-03-26T09:17:46.190Z,101925.88
2019-03-26T09:20:17.825Z,101925.88
2019-03-26T09:22:49.073Z,101927.11
2019-03-26T09:25:20.286Z,101925.17
2019-03-26T09:27:52.543Z,101923.64
2019-03-26T09:30:23.921Z,101916.75
2019-03-26T09:32:55.249Z,101920.72
2019-03-26T09:35:26.563Z,101921.51
2019-03-26T09:37:57.873Z,101930.48
2019-03-26T09:40:29.135Z,101930.36
2019-03-26T09:43:00.523Z,101934.16
2019-03-26T09:45:31.798Z,101934.61
2019-03-26T09:48:03.079Z,101920.75
2019-03-26T09:50:36.666Z,101921.58
2019-03-26T09:53:07.994Z,101926.12
2019-03-26T09:55:39.302Z,101931.75
2019-03-26T09:58:10.624Z,101923.06
2019-03-26T10:00:42.102Z,101933.73
2019-03-26T10:03:13.452Z,101932.82
2019-03-26T10:05:47.821Z,101934.35
2019-03-26T10:08:19.157Z,101935.59
2019-03-26T10:10:50.465Z,101962.48
2019-03-26T10:13:21.833Z,101945.17
2019-03-26T10:15:53.155Z,101940.66
2019-03-26T10:18:24.473Z,101927.68
2019-03-26T10:20:55.799Z,101946.70
2019-03-26T10:23:27.132Z,101929.16
2019-03-26T10:25:58.475Z,101934.21
2019-03-26T10:28:29.869Z,101934.95
2019-03-26T10:31:01.218Z,101939.31
2019-03-26T10:33:32.584Z,101940.56
2019-03-26T10:36:03.935Z,101933.73
2019-03-26T10:38:35.418Z,101938.65
2019-03-26T10:41:06.724Z,101935.06
2019-03-26T10:43:38.015Z,101942.02
2019-03-26T10:46:09.321Z,101941.98
2019-03-26T10:48:40.623Z,101945.69
2019-03-26T10:51:11.990Z,101939.27
2019-03-26T10:53:43.305Z,101948.48
2019-03-26T10:56:14.709Z,101932.40
2019-03-26T10:58:46.149Z,101934.81
2019-03-26T11:01:17.423Z,101925.63
2019-03-26T11:03:48.751Z,101932.75
2019-03-26T11:06:20.099Z,101935.71
2019-03-26T11:08:51.318Z,101923.94
2019-03-26T11:11:22.668Z,101928.27
2019-03-26T11:13:54.066Z,101929.49
2019-03-26T11:16:25.459Z,101928.69
2019-03-26T11:18:56.764Z,101950.95
2019-03-26T11:21:28.078Z,101929.19
2019-03-26T11:23:59.411Z,101925.94
2019-03-26T11:26:30.743Z,101926.17
2019-03-26T11:29:02.130Z,101911.52
2019-03-26T11:31:33.403Z,101915.84
2019-03-26T11:34:04.805Z,101928.44
2019-03-26T11:36:36.283Z,101921.78
2019-03-26T11:39:09.179Z,101943.86
2019-03-26T11:41:40.488Z,101949.87
2019-03-26T11:44:11.840Z,101946.78
2019-03-26T11:46:43.133Z,101954.34
2019-03-26T11:49:14.434Z,101946.78
2019-03-26T11:51:46.449Z,101949.77
2019-03-26T11:54:17.865Z,101956.86
2019-03-26T11:56:49.227Z,101953.70
2019-03-26T11:59:20.566Z,101951.06
2019-03-26T12:01:52.568Z,101945.02
2019-03-26T12:04:24.094Z,101952.33
2019-03-26T12:06:55.431Z,101955.02
2019-03-26T12:09:26.707Z,101942.23
2019-03-26T12:11:57.962Z,101942.33
2019-03-26T12:14:29.230Z,101952.69
2019-03-26T12:17:00.541Z,101950.45
2019-03-26T12:19:31.782Z,101945.91
2019-03-26T12:22:03.082Z,101933.12
2019-03-26T12:24:34.461Z,101943.65
2019-03-26T12:27:05.805Z,101937.11
2019-03-26T12:29:37.024Z,101946.74
2019-03-26T12:32:08.496Z,101930.22
2019-03-26T12:34:39.898Z,101944.08
2019-03-26T12:37:11.226Z,101933.06
2019-03-26T12:39:44.208Z,101940.53
2019-03-26T12:42:15.803Z,101938.89
2019-03-26T12:44:47.104Z,101937.28
2019-03-26T12:47:18.450Z,101943.78
2019-03-26T12:49:49.737Z,101943.16
2019-03-26T12:52:21.000Z,101947.58
2019-03-26T12:54:52.228Z,101955.95
2019-03-26T12:57:23.556Z,101958.33
2019-03-26T12:59:54.851Z,101957.48
2019-03-26T13:02:26.149Z,101959.92
2019-03-26T13:04:57.424Z,101959.13
2019-03-26T13:07:28.652Z,101951.14
2019-03-26T13:10:12.631Z,101959.30
2019-03-26T13:12:32.911Z,101977.25
2019-03-26T13:15:04.222Z,101969.99
2019-03-26T13:17:35.514Z,101970.13
2019-03-26T13:20:07.150Z,101972.47
2019-03-26T13:22:38.498Z,101964.89
2019-03-26T13:25:11.215Z,101981.97
2019-03-26T13:27:42.474Z,101976.90
2019-03-26T13:30:14.463Z,101980.55
2019-03-26T13:32:45.791Z,101978.60
2019-03-26T13:35:17.095Z,101992.39
2019-03-26T13:37:48.395Z,101983.53
2019-03-26T13:40:27.061Z,101984.12
2019-03-26T13:42:53.770Z,101987.81
2019-03-26T13:45:25.102Z,101990.83
2019-03-26T13:47:56.359Z,102003.08
2019-03-26T13:50:27.658Z,101994.20
2019-03-26T13:52:58.909Z,101994.02
2019-03-26T13:55:30.219Z,101991.09
2019-03-26T13:58:01.535Z,102003.86
2019-03-26T14:00:40.912Z,102015.23
2019-03-26T14:03:12.279Z,102009.97
2019-03-26T14:05:43.580Z,102008.42
2019-03-26T14:08:14.892Z,102012.09
2019-03-26T14:10:46.251Z,102011.48
2019-03-26T14:13:17.584Z,102012.26
2019-03-26T14:15:48.874Z,102042.36
2019-03-26T14:18:20.172Z,102020.88
2019-03-26T14:20:51.464Z,102017.04
2019-03-26T14:23:22.846Z,102024.52
2019-03-26T14:25:54.153Z,102026.21
2019-03-26T14:28:25.396Z,102032.11
2019-03-26T14:30:56.795Z,102030.73
2019-03-26T14:33:28.019Z,102029.72
2019-03-26T14:35:59.345Z,102034.16
2019-03-26T14:38:30.750Z,102033.63
2019-03-26T14:41:02.005Z,102042.50
2019-03-26T14:43:33.420Z,102030.69
2019-03-26T14:46:04.846Z,102046.58
2019-03-26T14:48:36.155Z,102040.00
2019-03-26T14:51:07.556Z,102036.45
2019-03-26T14:53:38.904Z,102032.91
2019-03-26T14:56:10.183Z,102039.45
2019-03-26T14:58:41.407Z,102036.58
2019-03-26T15:01:12.756Z,102030.95
2019-03-26T15:03:44.128Z,102027.27
2019-03-26T15:06:15.508Z,102031.45
2019-03-26T15:08:46.890Z,102026.14
2019-03-26T15:11:18.224Z,102018.84
2019-03-26T15:13:49.757Z,102026.41
2019-03-26T15:16:21.085Z,102022.63
2019-03-26T15:18:52.407Z,102028.93
2019-03-26T15:21:23.706Z,102029.13
2019-03-26T15:23:54.990Z,102046.92
2019-03-26T15:26:26.297Z,102035.56
2019-03-26T15:28:57.591Z,102035.73
2019-03-26T15:31:28.947Z,102041.41
2019-03-26T15:34:00.376Z,102039.23
2019-03-26T15:36:31.710Z,102047.02
2019-03-26T15:39:04.934Z,102047.21
2019-03-26T15:41:36.243Z,102036.91
2019-03-26T15:44:07.502Z,102038.10
2019-03-26T15:46:38.758Z,102032.75
2019-03-26T15:49:10.169Z,102038.67
2019-03-26T15:51:41.537Z,102050.96
2019-03-26T15:54:12.899Z,102050.53
2019-03-26T15:56:44.179Z,102047.76
2019-03-26T15:59:15.531Z,102051.31
2019-03-26T16:01:46.890Z,102061.53
2019-03-26T16:04:18.182Z,102051.14
2019-03-26T16:06:49.625Z,102058.98
2019-03-26T16:09:21.279Z,102056.45
2019-03-26T16:11:52.503Z,102060.17
2019-03-26T16:14:23.876Z,102061.95
2019-03-26T16:16:55.188Z,102059.55
2019-03-26T16:19:32.111Z,102061.63
2019-03-26T16:21:59.440Z,102067.06
2019-03-26T16:24:30.756Z,102078.58
2019-03-26T16:27:02.092Z,102078.34
2019-03-26T16:29:33.354Z,102079.11
2019-03-26T16:32:04.694Z,102089.14
2019-03-26T16:34:36.010Z,102080.58
2019-03-26T16:37:07.447Z,102082.10
2019-03-26T16:39:38.771Z,102089.05
2019-03-26T16:42:10.141Z,102084.09
2019-03-26T16:44:41.388Z,102075.05
2019-03-26T16:47:12.651Z,102078.84
2019-03-26T16:49:43.945Z,102082.86
2019-03-26T16:52:15.251Z,102100.48
2019-03-26T16:54:46.594Z,102087.63
2019-03-26T16:57:18.034Z,102089.94
2019-03-26T16:59:49.322Z,102088.63
2019-03-26T17:02:20.529Z,102086.23
2019-03-26T17:04:51.866Z,102085.61
2019-03-26T17:07:23.205Z,102081.05
2019-03-26T17:09:54.485Z,102075.11
2019-03-26T17:12:25.779Z,102077.48
2019-03-26T17:14:57.070Z,102075.62
2019-03-26T17:17:28.394Z,102076.94
2019-03-26T17:19:59.736Z,102077.42
2019-03-26T17:22:31.024Z,102076.55
2019-03-26T17:25:02.269Z,102087.13
2019-03-26T17:27:33.596Z,102092.98
2019-03-26T17:30:05.036Z,102093.84
2019-03-26T17:32:36.398Z,102091.67
2019-03-26T17:35:08.012Z,102091.97
2019-03-26T17:37:39.324Z,102096.97
2019-03-26T17:40:10.744Z,102097.52
2019-03-26T17:42:42.020Z,102101.67
2019-03-26T17:45:13.592Z,102106.77
2019-03-26T17:47:44.959Z,102107.16
2019-03-26T17:50:16.308Z,102113.17
2019-03-26T17:52:47.634Z,102107.86
2019-03-26T17:55:18.853Z,102116.41
2019-03-26T17:57:50.168Z,102113.08
2019-03-26T18:00:36.259Z,102117.52
2019-03-26T18:03:07.645Z,102119.59
2019-03-26T18:05:38.948Z,102112.04
2019-03-26T18:08:10.317Z,102118.59
2019-03-26T18:10:41.674Z,102127.33
2019-03-26T18:13:12.997Z,102131.17
2019-03-26T18:15:44.328Z,102128.55
2019-03-26T18:18:15.637Z,102126.66
2019-03-26T18:20:46.980Z,102123.80
2019-03-26T18:23:18.239Z,102130.84
2019-03-26T18:25:49.598Z,102133.53
2019-03-26T18:28:20.977Z,102135.61
2019-03-26T18:30:52.337Z,102140.48
2019-03-26T18:33:23.674Z,102147.97
2019-03-26T18:35:55.012Z,102155.30
2019-03-26T18:38:26.349Z,102144.60
2019-03-26T18:40:57.637Z,102159.87
2019-03-26T18:43:28.970Z,102163.67
2019-03-26T18:46:00.299Z,102173.49
2019-03-26T18:48:31.621Z,102179.13
2019-03-26T18:51:02.955Z,102182.38
2019-03-26T18:53:34.297Z,102176.07
2019-03-26T18:56:05.693Z,102177.38
2019-03-26T18:58:37.441Z,102186.57
2019-03-26T19:01:08.818Z,102186.75
2019-03-26T19:03:40.171Z,102190.83
2019-03-26T19:06:11.510Z,102193.94
2019-03-26T19:08:42.945Z,102188.27
2019-03-26T19:11:14.358Z,102193.52
2019-03-26T19:13:45.949Z,102189.20
2019-03-26T19:16:17.326Z,102187.75
2019-03-26T19:18:48.810Z,102188.27
2019-03-26T19:21:20.113Z,102184.20
2019-03-26T19:24:03.508Z,102195.27
2019-03-26T19:26:24.543Z,102192.00
2019-03-26T19:28:55.901Z,102199.95
2019-03-26T19:31:27.363Z,102205.58
2019-03-26T19:33:58.659Z,102199.02
2019-03-26T19:36:29.902Z,102203.89
2019-03-26T19:39:01.078Z,102208.38
2019-03-26T19:41:32.396Z,102200.25
2019-03-26T19:44:03.809Z,102202.58
2019-03-26T19:46:37.178Z,102200.40
2019-03-26T19:49:08.213Z,102198.25
2019-03-26T19:51:39.524Z,102205.75
2019-03-26T19:54:10.901Z,102199.70
2019-03-26T19:56:42.232Z,102204.91
2019-03-26T19:59:13.596Z,102198.64
2019-03-26T20:01:45.002Z,102203.37
2019-03-26T20:04:16.337Z,102204.69
2019-03-26T20:06:47.594Z,102215.84
2019-03-26T20:09:18.979Z,102208.38
2019-03-26T20:11:50.340Z,102213.14
2019-03-26T20:14:21.619Z,102207.96
2019-03-26T20:16:52.998Z,102207.96
2019-03-26T20:19:24.309Z,102214.08
2019-03-26T20:21:55.551Z,102208.38
2019-03-26T20:24:26.780Z,102212.06
2019-03-26T20:26:58.191Z,102219.64
2019-03-26T20:29:29.519Z,102217.95
2019-03-26T20:32:00.874Z,102217.56
2019-03-26T20:34:32.294Z,102220.62
2019-03-26T20:37:03.540Z,102226.88
2019-03-26T20:39:34.889Z,102221.25
2019-03-26T20:42:06.262Z,102228.08
2019-03-26T20:44:37.576Z,102230.32
2019-03-26T20:47:08.974Z,102237.68
2019-03-26T20:49:40.310Z,102240.89
2019-03-26T20:52:11.663Z,102241.43
2019-03-26T20:54:42.951Z,102243.00
2019-03-26T20:57:14.584Z,102248.31
2019-03-26T20:59:45.793Z,102247.77
2019-03-26T21:02:17.069Z,102256.25
2019-03-26T21:04:48.510Z,102251.33
2019-03-26T21:07:19.966Z,102259.06
2019-03-26T21:09:51.359Z,102257.56
2019-03-26T21:12:22.683Z,102260.19
2019-03-26T21:14:53.922Z,102263.94
2019-03-26T21:17:25.309Z,102269.31
2019-03-26T21:19:56.593Z,102262.46
2019-03-26T21:22:27.863Z,102260.38
2019-03-26T21:24:59.144Z,102262.94
2019-03-26T21:27:30.471Z,102267.45
2019-03-26T21:30:10.657Z,102260.00
2019-03-26T21:32:34.929Z,102267.94
2019-03-26T21:35:06.959Z,102266.24
2019-03-26T21:37:38.640Z,102267.20
2019-03-26T21:40:10.848Z,102270.88
2019-03-26T21:42:42.131Z,102261.15
2019-03-26T21:45:15.058Z,102269.95
2019-03-26T21:47:46.373Z,102271.55
2019-03-26T21:50:17.655Z,102273.13
2019-03-26T21:52:50.157Z,102278.50
2019-03-26T21:55:21.480Z,102273.57
2019-03-26T21:57:52.738Z,102274.18
2019-03-26T22:00:24.067Z,102276.42
2019-03-26T22:02:55.474Z,102286.06
2019-03-26T22:05:27.056Z,102285.77
2019-03-26T22:08:03.925Z,102283.37
2019-03-26T22:10:35.482Z,102288.94
2019-03-26T22:13:06.991Z,102283.37
2019-03-26T22:15:39.967Z,102288.63
2019-03-26T22:18:11.367Z,102291.50
2019-03-26T22:20:42.802Z,102298.19
2019-03-26T22:23:14.405Z,102304.50
2019-03-26T22:25:45.776Z,102304.17
2019-03-26T22:28:17.216Z,102314.16
2019-03-26T22:30:48.615Z,102314.61
2019-03-26T22:33:19.963Z,102316.25
2019-03-26T22:35:51.285Z,102317.78
2019-03-26T22:38:22.646Z,102318.61
2019-03-26T22:40:53.954Z,102321.50
2019-03-26T22:43:25.252Z,102331.13
2019-03-26T22:45:56.618Z,102325.72
2019-03-26T22:48:27.930Z,102324.57
2019-03-26T22:50:59.264Z,102334.88
2019-03-26T22:53:30.596Z,102339.43
2019-03-26T22:56:01.921Z,102350.98
2019-03-26T22:58:33.251Z,102351.91
2019-03-26T23:01:04.911Z,102354.53
2019-03-26T23:03:36.265Z,102354.53
2019-03-26T23:06:07.688Z,102356.08
2019-03-26T23:08:39.073Z,102355.30
2019-03-26T23:11:10.412Z,102352.86
2019-03-26T23:13:41.782Z,102358.11
2019-03-26T23:16:14.234Z,102360.55
2019-03-26T23:18:45.552Z,102358.80
2019-03-26T23:21:19.755Z,102358.25
2019-03-26T23:23:50.027Z,102353.55
2019-03-26T23:26:21.338Z,102349.39
2019-03-26T23:28:52.703Z,102349.13
2019-03-26T23:31:24.077Z,102355.30
2019-03-26T23:33:55.434Z,102358.64
2019-03-26T23:36:26.757Z,102352.14
2019-03-26T23:38:58.094Z,102353.00
2019-03-26T23:41:29.472Z,102354.09
2019-03-26T23:44:00.813Z,102360.94
2019-03-26T23:46:32.152Z,102356.08
2019-03-26T23:49:03.390Z,102354.31
2019-03-26T23:51:34.710Z,102352.78
2019-03-26T23:54:06.058Z,102355.77
2019-03-26T23:56:37.349Z,102359.77
2019-03-26T23:59:08.680Z,102355.67
